createdAt,value
2022-09-14T00:00:33.386Z,98552.72
2022-09-14T00:03:06.231Z,98556.66
2022-09-14T00:05:38.474Z,98549.13
2022-09-14T00:08:11.208Z,98534.44
2022-09-14T00:10:46.672Z,98525.97
2022-09-14T00:13:18.250Z,98533.63
2022-09-14T00:15:52.044Z,98527.00
2022-09-14T00:18:24.784Z,98520.34
2022-09-14T00:21:07.511Z,98516.63
2022-09-14T00:23:42.427Z,98508.06
2022-09-14T00:26:17.787Z,98504.72
2022-09-14T00:28:54.677Z,98507.75
2022-09-14T00:31:26.903Z,98489.75
2022-09-14T00:33:58.517Z,98501.03
2022-09-14T00:36:31.400Z,98483.59
2022-09-14T00:39:06.404Z,98494.06
2022-09-14T00:41:42.260Z,98502.31
2022-09-14T00:44:13.852Z,98487.09
2022-09-14T00:46:53.486Z,98480.69
2022-09-14T00:49:27.792Z,98487.00
2022-09-14T00:52:04.006Z,98485.97
2022-09-14T00:54:43.576Z,98484.06
2022-09-14T00:57:16.613Z,98478.97
2022-09-14T00:59:50.992Z,98485.13
2022-09-14T01:02:25.978Z,98486.66
2022-09-14T01:04:57.739Z,98503.03
2022-09-14T01:07:49.004Z,98496.66
2022-09-14T01:10:26.658Z,98493.28
2022-09-14T01:13:19.049Z,98495.53
2022-09-14T01:16:09.033Z,98505.19
2022-09-14T01:18:59.143Z,98501.84
2022-09-14T01:21:35.532Z,98512.31
2022-09-14T01:24:48.802Z,98508.38
2022-09-14T01:27:25.112Z,98490.69
2022-09-14T01:30:09.656Z,98480.47
2022-09-14T01:32:58.816Z,98483.50
2022-09-14T01:35:44.542Z,98481.16
2022-09-14T01:38:21.329Z,98477.22
2022-09-14T01:40:54.646Z,98482.78
2022-09-14T01:43:40.917Z,98488.94
2022-09-14T01:46:21.271Z,98482.69
2022-09-14T01:49:15.327Z,98491.75
2022-09-14T01:51:58.630Z,98480.56
2022-09-14T01:54:35.717Z,98474.75
2022-09-14T01:57:36.261Z,98471.88
2022-09-14T02:00:16.354Z,98475.00
2022-09-14T02:02:56.364Z,98470.47
2022-09-14T02:05:37.385Z,98467.34
2022-09-14T02:08:08.977Z,98466.25
2022-09-14T02:10:41.008Z,98456.16
2022-09-14T02:13:13.184Z,98459.16
2022-09-14T02:15:44.962Z,98451.13
2022-09-14T02:18:16.865Z,98450.66
2022-09-14T02:21:11.622Z,98442.97
2022-09-14T02:23:43.706Z,98425.81
2022-09-14T02:26:17.417Z,98425.72
2022-09-14T02:28:49.648Z,98428.28
2022-09-14T02:31:39.418Z,98429.94
2022-09-14T02:34:16.820Z,98440.41
2022-09-14T02:37:12.183Z,98439.34
2022-09-14T02:40:21.396Z,98449.44
2022-09-14T02:43:10.124Z,98445.31
2022-09-14T02:46:18.821Z,98446.25
2022-09-14T02:49:05.436Z,98441.72
2022-09-14T02:52:25.692Z,98442.78
2022-09-14T02:55:05.025Z,98450.44
2022-09-14T02:58:04.705Z,98443.13
2022-09-14T03:00:45.389Z,98458.44
2022-09-14T03:03:21.831Z,98452.19
2022-09-14T03:05:56.520Z,98451.16
2022-09-14T03:08:31.148Z,98452.78
2022-09-14T03:11:02.985Z,98458.44
2022-09-14T03:13:35.842Z,98459.06
2022-09-14T03:16:13.587Z,98461.84
2022-09-14T03:18:45.253Z,98462.66
2022-09-14T03:21:17.960Z,98463.00
2022-09-14T03:23:55.503Z,98457.53
2022-09-14T03:26:29.994Z,98461.72
2022-09-14T03:29:01.473Z,98454.53
2022-09-14T03:31:34.187Z,98446.50
2022-09-14T03:34:10.522Z,98448.16
2022-09-14T03:36:42.109Z,98449.78
2022-09-14T03:39:14.152Z,98454.97
2022-09-14T03:41:48.766Z,98452.31
2022-09-14T03:44:20.856Z,98432.94
2022-09-14T03:46:52.612Z,98426.66
2022-09-14T03:49:24.265Z,98422.59
2022-09-14T03:51:59.640Z,98426.06
2022-09-14T03:54:31.576Z,98423.97
2022-09-14T03:57:07.482Z,98426.97
2022-09-14T03:59:43.055Z,98420.13
2022-09-14T04:02:18.796Z,98420.50
2022-09-14T04:04:50.978Z,98420.81
2022-09-14T04:07:22.627Z,98413.84
2022-09-14T04:09:54.217Z,98421.06
2022-09-14T04:12:28.677Z,98411.75
2022-09-14T04:15:00.304Z,98412.34
2022-09-14T04:17:32.362Z,98405.94
2022-09-14T04:20:04.541Z,98407.91
2022-09-14T04:22:36.125Z,98411.81
2022-09-14T04:25:10.816Z,98408.78
2022-09-14T04:27:42.456Z,98406.19
2022-09-14T04:30:22.052Z,98410.81
2022-09-14T04:32:54.418Z,98410.34
2022-09-14T04:35:26.041Z,98397.53
2022-09-14T04:37:58.042Z,98392.38
2022-09-14T04:40:29.758Z,98396.41
2022-09-14T04:43:01.449Z,98394.72
2022-09-14T04:45:33.356Z,98399.09
2022-09-14T04:48:05.042Z,98399.75
2022-09-14T04:50:36.661Z,98392.63
2022-09-14T04:53:10.573Z,98386.78
2022-09-14T04:55:42.197Z,98383.88
2022-09-14T04:58:13.803Z,98379.69
2022-09-14T05:00:46.841Z,98372.56
2022-09-14T05:03:18.527Z,98379.63
2022-09-14T05:05:50.329Z,98368.94
2022-09-14T05:08:21.910Z,98372.88
2022-09-14T05:10:57.444Z,98374.59
2022-09-14T05:13:29.055Z,98373.03
2022-09-14T05:16:14.568Z,98372.56
2022-09-14T05:18:46.852Z,98374.75
2022-09-14T05:21:20.270Z,98372.31
2022-09-14T05:23:57.194Z,98368.50
2022-09-14T05:26:32.812Z,98370.06
2022-09-14T05:29:04.375Z,98364.13
2022-09-14T05:31:36.072Z,98375.41
2022-09-14T05:34:10.228Z,98375.66
2022-09-14T05:36:44.811Z,98373.78
2022-09-14T05:39:19.791Z,98382.38
2022-09-14T05:41:54.264Z,98371.91
2022-09-14T05:44:25.828Z,98376.53
2022-09-14T05:46:57.456Z,98373.69
2022-09-14T05:49:29.254Z,98373.75
2022-09-14T05:52:00.927Z,98376.78
2022-09-14T05:54:32.644Z,98377.31
2022-09-14T05:57:07.102Z,98385.94
2022-09-14T05:59:38.548Z,98392.56
2022-09-14T06:02:14.419Z,98392.84
2022-09-14T06:04:50.117Z,98391.94
2022-09-14T06:07:27.072Z,98393.81
2022-09-14T06:09:58.932Z,98398.00
2022-09-14T06:12:32.817Z,98408.47
2022-09-14T06:15:05.219Z,98403.28
2022-09-14T06:17:37.334Z,98398.81
2022-09-14T06:20:10.533Z,98411.22
2022-09-14T06:22:44.991Z,98411.13
2022-09-14T06:25:16.743Z,98408.25
2022-09-14T06:27:48.357Z,98413.44
2022-09-14T06:30:19.948Z,98413.97
2022-09-14T06:32:51.601Z,98405.16
2022-09-14T06:35:23.255Z,98405.97
2022-09-14T06:37:56.831Z,98400.78
2022-09-14T06:40:29.817Z,98398.22
2022-09-14T06:43:02.390Z,98389.88
2022-09-14T06:45:34.000Z,98392.78
2022-09-14T06:48:05.608Z,98382.09
2022-09-14T06:50:37.172Z,98383.72
2022-09-14T06:53:08.775Z,98380.00
2022-09-14T06:55:44.809Z,98374.06
2022-09-14T06:58:16.592Z,98366.53
2022-09-14T07:00:49.340Z,98377.16
2022-09-14T07:03:20.961Z,98374.88
2022-09-14T07:05:54.835Z,98370.59
2022-09-14T07:08:30.710Z,98362.56
2022-09-14T07:11:03.505Z,98357.22
2022-09-14T07:13:35.690Z,98353.19
2022-09-14T07:16:08.058Z,98348.38
2022-09-14T07:18:40.856Z,98351.31
2022-09-14T07:21:18.011Z,98344.91
2022-09-14T07:23:52.898Z,98344.44
2022-09-14T07:26:26.714Z,98345.56
2022-09-14T07:29:03.748Z,98343.69
2022-09-14T07:31:40.938Z,98353.56
2022-09-14T07:34:13.417Z,98350.59
2022-09-14T07:36:48.501Z,98347.34
2022-09-14T07:39:21.734Z,98351.41
2022-09-14T07:41:53.679Z,98359.97
2022-09-14T07:44:25.920Z,98357.06
2022-09-14T07:46:57.532Z,98359.72
2022-09-14T07:49:29.883Z,98353.81
2022-09-14T07:52:01.568Z,98364.75
2022-09-14T07:54:39.683Z,98353.72
2022-09-14T07:57:11.274Z,98350.25
2022-09-14T07:59:43.189Z,98359.34
2022-09-14T08:02:15.016Z,98345.63
2022-09-14T08:04:46.607Z,98350.16
2022-09-14T08:07:18.545Z,98358.75
2022-09-14T08:09:50.253Z,98351.56
2022-09-14T08:12:22.333Z,98351.06
2022-09-14T08:14:53.912Z,98350.31
2022-09-14T08:17:25.587Z,98355.44
2022-09-14T08:19:57.325Z,98356.59
2022-09-14T08:22:29.905Z,98357.94
2022-09-14T08:25:01.466Z,98354.38
2022-09-14T08:27:32.999Z,98350.16
2022-09-14T08:30:05.789Z,98353.19
2022-09-14T08:32:37.358Z,98343.59
2022-09-14T08:35:09.516Z,98335.28
2022-09-14T08:37:41.072Z,98335.88
2022-09-14T08:40:13.621Z,98337.72
2022-09-14T08:42:46.780Z,98335.75
2022-09-14T08:45:22.519Z,98332.34
2022-09-14T08:47:54.922Z,98332.09
2022-09-14T08:50:28.718Z,98329.97
2022-09-14T08:53:00.605Z,98335.91
2022-09-14T08:55:39.003Z,98322.44
2022-09-14T08:58:10.513Z,98327.22
2022-09-14T09:00:58.832Z,98325.84
2022-09-14T09:04:17.991Z,98323.50
2022-09-14T09:07:22.177Z,98329.72
2022-09-14T09:09:57.274Z,98328.75
2022-09-14T09:12:42.248Z,98322.16
2022-09-14T09:15:28.001Z,98321.97
2022-09-14T09:18:07.053Z,98323.16
2022-09-14T09:20:52.227Z,98327.53
2022-09-14T09:23:27.430Z,98326.72
2022-09-14T09:26:16.486Z,98327.53
2022-09-14T09:28:55.052Z,98326.19
2022-09-14T09:31:32.373Z,98322.97
2022-09-14T09:34:25.728Z,98325.91
2022-09-14T09:36:57.416Z,98332.13
2022-09-14T09:39:33.595Z,98325.19
2022-09-14T09:42:13.021Z,98320.47
2022-09-14T09:45:00.695Z,98325.81
2022-09-14T09:47:42.612Z,98326.16
2022-09-14T09:50:14.196Z,98324.56
2022-09-14T09:52:57.451Z,98317.13
2022-09-14T09:55:38.952Z,98315.25
2022-09-14T09:58:29.124Z,98313.88
2022-09-14T10:01:06.007Z,98311.75
2022-09-14T10:03:41.512Z,98312.38
2022-09-14T10:06:19.482Z,98299.66
2022-09-14T10:08:53.164Z,98305.59
2022-09-14T10:11:38.159Z,98303.72
2022-09-14T10:14:24.142Z,98309.97
2022-09-14T10:17:17.359Z,98305.84
2022-09-14T10:19:54.038Z,98307.53
2022-09-14T10:22:28.574Z,98310.03
2022-09-14T10:25:14.937Z,98310.56
2022-09-14T10:27:55.412Z,98312.09
2022-09-14T10:30:35.587Z,98312.13
2022-09-14T10:33:15.742Z,98306.78
2022-09-14T10:36:26.205Z,98305.19
2022-09-14T10:39:08.437Z,98305.53
2022-09-14T10:41:54.140Z,98305.81
2022-09-14T10:44:40.724Z,98313.38
2022-09-14T10:47:38.159Z,98315.28
2022-09-14T10:50:28.239Z,98316.53
2022-09-14T10:53:31.318Z,98317.81
2022-09-14T10:56:15.234Z,98310.78
2022-09-14T10:58:49.912Z,98314.81
2022-09-14T11:01:24.541Z,98314.50
2022-09-14T11:04:02.018Z,98318.00
2022-09-14T11:07:12.526Z,98313.00
2022-09-14T11:09:56.800Z,98293.91
2022-09-14T11:13:05.524Z,98283.66
2022-09-14T11:15:59.991Z,98269.63
2022-09-14T11:19:04.185Z,98268.81
2022-09-14T11:21:54.549Z,98273.63
2022-09-14T11:24:40.033Z,98273.13
2022-09-14T11:27:29.404Z,98269.09
2022-09-14T11:30:17.822Z,98272.25
2022-09-14T11:33:01.771Z,98262.31
2022-09-14T11:35:46.072Z,98264.69
2022-09-14T11:38:21.467Z,98270.28
2022-09-14T11:41:16.632Z,98269.44
2022-09-14T11:44:11.116Z,98266.41
2022-09-14T11:46:50.154Z,98266.19
2022-09-14T11:49:27.697Z,98264.31
2022-09-14T11:52:22.313Z,98262.69
2022-09-14T11:54:55.630Z,98261.38
2022-09-14T11:57:33.527Z,98255.72
2022-09-14T12:00:15.157Z,98253.03
2022-09-14T12:03:13.270Z,98250.13
2022-09-14T12:05:46.693Z,98244.28
2022-09-14T12:08:24.245Z,98252.34
2022-09-14T12:11:08.254Z,98256.19
2022-09-14T12:13:40.944Z,98249.78
2022-09-14T12:16:13.147Z,98243.31
2022-09-14T12:18:46.590Z,98235.56
2022-09-14T12:21:27.562Z,98232.47
2022-09-14T12:24:14.773Z,98230.59
2022-09-14T12:26:49.254Z,98230.66
2022-09-14T12:29:29.135Z,98217.56
2022-09-14T12:32:29.563Z,98210.41
2022-09-14T12:35:35.744Z,98213.50
2022-09-14T12:38:30.168Z,98215.44
2022-09-14T12:41:22.973Z,98221.59
2022-09-14T12:43:55.762Z,98224.28
2022-09-14T12:46:36.373Z,98216.00
2022-09-14T12:49:31.026Z,98217.09
2022-09-14T12:52:41.277Z,98215.50
2022-09-14T12:55:48.473Z,98203.63
2022-09-14T12:58:29.015Z,98208.72
2022-09-14T13:01:29.186Z,98211.41
2022-09-14T13:04:03.368Z,98204.69
2022-09-14T13:06:42.796Z,98200.38
2022-09-14T13:09:23.124Z,98197.69
2022-09-14T13:11:59.343Z,98200.38
2022-09-14T13:14:48.060Z,98197.75
2022-09-14T13:17:21.474Z,98194.00
2022-09-14T13:20:03.491Z,98192.69
2022-09-14T13:22:43.047Z,98189.22
2022-09-14T13:25:32.549Z,98194.31
2022-09-14T13:28:06.870Z,98208.75
2022-09-14T13:30:43.457Z,98202.34
2022-09-14T13:33:18.602Z,98198.03
2022-09-14T13:35:56.289Z,98186.75
2022-09-14T13:38:34.634Z,98176.56
2022-09-14T13:41:10.773Z,98169.34
2022-09-14T13:43:44.183Z,98179.50
2022-09-14T13:46:19.762Z,98171.78
2022-09-14T13:48:53.571Z,98179.03
2022-09-14T13:51:27.879Z,98186.84
2022-09-14T13:54:17.718Z,98179.09
2022-09-14T13:57:15.245Z,98169.16
2022-09-14T14:00:07.344Z,98165.19
2022-09-14T14:02:53.981Z,98168.97
2022-09-14T14:05:34.771Z,98176.28
2022-09-14T14:08:36.841Z,98168.53
2022-09-14T14:11:09.769Z,98174.41
2022-09-14T14:13:43.641Z,98172.75
2022-09-14T14:16:25.262Z,98166.31
2022-09-14T14:18:58.239Z,98165.50
2022-09-14T14:21:41.700Z,98160.94
2022-09-14T14:24:27.752Z,98155.56
2022-09-14T14:30:23.349Z,98156.34
2022-09-14T14:32:56.673Z,98152.31
2022-09-14T14:35:31.704Z,98157.16
2022-09-14T14:38:03.378Z,98155.31
2022-09-14T14:40:36.853Z,98163.34
2022-09-14T14:43:17.267Z,98170.03
2022-09-14T14:45:51.083Z,98170.81
2022-09-14T14:48:23.549Z,98170.03
2022-09-14T14:50:55.784Z,98163.34
2022-09-14T14:53:27.520Z,98152.09
2022-09-14T14:55:59.251Z,98158.00
2022-09-14T14:58:36.171Z,98158.81
2022-09-14T15:01:08.682Z,98154.22
2022-09-14T15:03:40.758Z,98155.00
2022-09-14T15:06:23.883Z,98156.88
2022-09-14T15:08:57.753Z,98152.28
2022-09-14T15:11:29.451Z,98150.97
2022-09-14T15:15:03.724Z,98138.63
2022-09-14T15:17:42.759Z,98151.16
2022-09-14T15:20:14.734Z,98140.72
2022-09-14T15:22:51.284Z,98132.66
2022-09-14T15:25:23.075Z,98136.94
2022-09-14T15:27:54.719Z,98146.34
2022-09-14T15:30:26.680Z,98140.97
2022-09-14T15:33:00.372Z,98139.66
2022-09-14T15:35:32.105Z,98131.63
2022-09-14T15:38:03.839Z,98141.50
2022-09-14T15:40:35.561Z,98138.81
2022-09-14T15:43:07.223Z,98122.19
2022-09-14T15:45:38.899Z,98114.69
2022-09-14T15:48:15.651Z,98112.84
2022-09-14T15:50:50.100Z,98112.56
2022-09-14T15:53:21.539Z,98111.78
2022-09-14T15:55:53.190Z,98109.34
2022-09-14T15:58:24.769Z,98106.09
2022-09-14T16:00:56.548Z,98096.75
2022-09-14T16:03:28.166Z,98099.44
2022-09-14T16:06:06.485Z,98095.72
2022-09-14T16:08:39.125Z,98097.03
2022-09-14T16:11:10.814Z,98086.03
2022-09-14T16:13:42.419Z,98068.06
2022-09-14T16:16:16.189Z,98064.31
2022-09-14T16:18:50.166Z,98054.66
2022-09-14T16:21:25.207Z,98047.69
2022-09-14T16:24:03.476Z,98044.19
2022-09-14T16:26:37.194Z,98032.94
2022-09-14T16:29:11.771Z,98031.88
2022-09-14T16:31:44.853Z,98028.41
2022-09-14T16:34:27.345Z,98020.66
2022-09-14T16:37:06.621Z,98031.09
2022-09-14T16:39:41.399Z,98034.88
2022-09-14T16:42:13.065Z,98042.91
2022-09-14T16:44:44.670Z,98043.97
2022-09-14T16:47:16.333Z,98045.53
2022-09-14T16:49:48.039Z,98034.03
2022-09-14T16:52:19.697Z,98024.91
2022-09-14T16:54:55.974Z,98020.06
2022-09-14T16:57:44.430Z,98014.69
2022-09-14T17:00:19.552Z,98025.13
2022-09-14T17:02:54.810Z,98028.59
2022-09-14T17:05:28.452Z,98026.47
2022-09-14T17:08:00.410Z,98017.31
2022-09-14T17:10:38.161Z,98009.56
2022-09-14T17:13:11.916Z,98014.34
2022-09-14T17:15:45.727Z,98023.19
2022-09-14T17:18:17.800Z,98025.03
2022-09-14T17:21:02.033Z,98025.56
2022-09-14T17:23:34.555Z,98020.25
2022-09-14T17:26:14.094Z,98017.78
2022-09-14T17:28:56.145Z,98004.09
2022-09-14T17:31:33.757Z,97997.13
2022-09-14T17:34:11.980Z,97997.41
2022-09-14T17:36:44.275Z,97995.28
2022-09-14T17:39:27.183Z,98001.75
2022-09-14T17:42:01.597Z,97992.66
2022-09-14T17:44:38.215Z,98000.63
2022-09-14T17:47:09.941Z,98004.94
2022-09-14T17:49:54.696Z,98009.22
2022-09-14T17:52:26.514Z,98012.47
2022-09-14T17:55:00.573Z,98027.47
2022-09-14T17:57:34.675Z,98026.94
2022-09-14T18:00:12.388Z,98032.06
2022-09-14T18:02:53.955Z,98036.34
2022-09-14T18:05:26.039Z,98041.97
2022-09-14T18:08:01.133Z,98045.44
2022-09-14T18:10:36.085Z,98032.84
2022-09-14T18:13:07.904Z,98028.31
2022-09-14T18:15:42.356Z,98022.66
2022-09-14T18:18:16.198Z,98018.91
2022-09-14T18:20:56.162Z,98033.13
2022-09-14T18:23:32.026Z,98030.69
2022-09-14T18:26:08.190Z,98025.34
2022-09-14T18:28:39.781Z,98026.69
2022-09-14T18:31:15.102Z,98024.00
2022-09-14T18:33:52.062Z,98027.50
2022-09-14T18:36:23.847Z,98020.00
2022-09-14T18:38:59.181Z,98013.03
2022-09-14T18:41:35.221Z,98023.75
2022-09-14T18:44:07.113Z,98023.69
2022-09-14T18:46:41.209Z,98018.88
2022-09-14T18:49:13.048Z,98009.19
2022-09-14T18:51:54.421Z,98004.88
2022-09-14T18:54:27.695Z,98003.78
2022-09-14T18:56:59.875Z,98004.84
2022-09-14T18:59:37.582Z,97996.00
2022-09-14T19:02:11.233Z,97993.84
2022-09-14T19:04:49.146Z,97995.38
2022-09-14T19:07:31.424Z,97990.56
2022-09-14T19:10:11.608Z,97984.66
2022-09-14T19:12:44.448Z,97990.81
2022-09-14T19:15:20.581Z,97988.13
2022-09-14T19:17:58.536Z,97977.69
2022-09-14T19:20:55.168Z,97986.03
2022-09-14T19:23:39.636Z,97991.63
2022-09-14T19:26:15.123Z,98000.47
2022-09-14T19:28:51.640Z,98003.44
2022-09-14T19:31:24.481Z,97997.81
2022-09-14T19:33:57.514Z,97987.66
2022-09-14T19:36:30.660Z,97989.84
2022-09-14T19:39:04.018Z,97982.63
2022-09-14T19:41:35.699Z,97977.25
2022-09-14T19:44:08.006Z,97981.31
2022-09-14T19:46:40.298Z,97986.38
2022-09-14T19:49:16.776Z,97982.88
2022-09-14T19:51:58.138Z,97978.88
2022-09-14T19:54:31.896Z,97977.00
2022-09-14T19:57:06.885Z,97966.28
2022-09-14T19:59:38.755Z,97972.47
2022-09-14T20:02:11.579Z,97979.16
2022-09-14T20:04:43.309Z,97981.59
2022-09-14T20:07:14.916Z,97980.53
2022-09-14T20:09:48.873Z,97978.91
2022-09-14T20:12:20.519Z,97986.16
2022-09-14T20:14:52.170Z,97997.41
2022-09-14T20:17:23.815Z,97993.13
2022-09-14T20:19:55.486Z,97987.22
2022-09-14T20:22:27.174Z,97999.28
2022-09-14T20:24:58.907Z,97994.50
2022-09-14T20:27:30.493Z,97995.81
2022-09-14T20:30:02.642Z,97992.06
2022-09-14T20:32:34.771Z,97988.31
2022-09-14T20:35:06.467Z,97985.09
2022-09-14T20:37:38.081Z,97968.47
2022-09-14T20:40:10.215Z,97965.53
2022-09-14T20:42:41.889Z,97959.09
2022-09-14T20:45:15.275Z,97956.66
2022-09-14T20:47:48.017Z,97965.25
2022-09-14T20:50:19.624Z,97959.34
2022-09-14T20:52:51.215Z,97958.50
2022-09-14T20:55:22.829Z,97951.28
2022-09-14T20:57:54.418Z,97943.19
2022-09-14T21:00:26.085Z,97946.94
2022-09-14T21:02:58.270Z,97933.53
2022-09-14T21:05:32.488Z,97931.38
2022-09-14T21:08:04.545Z,97922.81
2022-09-14T21:10:41.814Z,97936.22
2022-09-14T21:13:13.529Z,97930.88
2022-09-14T21:15:45.271Z,97930.88
2022-09-14T21:18:21.529Z,97925.25
2022-09-14T21:20:54.226Z,97921.75
2022-09-14T21:23:27.901Z,97916.41
2022-09-14T21:25:59.793Z,97923.38
2022-09-14T21:28:32.168Z,97924.97
2022-09-14T21:31:05.042Z,97931.41
2022-09-14T21:33:39.109Z,97932.53
2022-09-14T21:36:22.792Z,97932.28
2022-09-14T21:38:56.918Z,97930.41
2022-09-14T21:41:37.818Z,97935.22
2022-09-14T21:44:09.517Z,97932.97
2022-09-14T21:46:41.602Z,97932.47
2022-09-14T21:49:17.394Z,97936.44
2022-09-14T21:51:53.181Z,97942.59
2022-09-14T21:54:25.003Z,97938.00
2022-09-14T21:56:56.838Z,97935.03
2022-09-14T21:59:28.437Z,97933.69
2022-09-14T22:02:00.095Z,97931.28
2022-09-14T22:04:31.807Z,97933.72
2022-09-14T22:07:03.617Z,97922.75
2022-09-14T22:09:37.733Z,97925.34
2022-09-14T22:12:09.410Z,97924.78
2022-09-14T22:14:41.029Z,97930.69
2022-09-14T22:17:12.700Z,97937.94
2022-09-14T22:19:44.928Z,97925.59
2022-09-14T22:22:16.605Z,97931.53
2022-09-14T22:24:48.200Z,97924.28
2022-09-14T22:27:19.837Z,97918.44
2022-09-14T22:29:52.451Z,97905.53
2022-09-14T22:32:24.340Z,97906.34
2022-09-14T22:34:55.996Z,97893.75
2022-09-14T22:37:27.616Z,97903.34
2022-09-14T22:39:59.190Z,97907.16
2022-09-14T22:42:31.546Z,97890.84
2022-09-14T22:45:03.336Z,97895.41
2022-09-14T22:47:35.611Z,97910.88
2022-09-14T22:50:07.544Z,97901.47
2022-09-14T22:52:39.567Z,97910.84
2022-09-14T22:55:11.284Z,97906.81
2022-09-14T22:57:42.934Z,97906.78
2022-09-14T23:00:18.958Z,97904.13
2022-09-14T23:02:51.706Z,97903.56
2022-09-14T23:05:23.329Z,97904.13
2022-09-14T23:07:55.866Z,97908.09
2022-09-14T23:10:27.965Z,97908.88
2022-09-14T23:12:59.597Z,97913.41
2022-09-14T23:15:31.761Z,97917.47
2022-09-14T23:18:03.626Z,97918.03
2022-09-14T23:20:40.205Z,97915.59
2022-09-14T23:23:12.532Z,97926.00
2022-09-14T23:25:44.214Z,97920.06
2022-09-14T23:28:15.840Z,97928.56
2022-09-14T23:30:53.870Z,97921.56
2022-09-14T23:33:29.585Z,97914.09
2022-09-14T23:36:01.433Z,97910.06
2022-09-14T23:38:35.341Z,97921.00
2022-09-14T23:41:06.913Z,97923.41
2022-09-14T23:43:38.499Z,97920.75
2022-09-14T23:46:10.619Z,97920.81
2022-09-14T23:48:45.524Z,97917.63
2022-09-14T23:51:18.007Z,97921.59
2022-09-14T23:53:49.617Z,97933.47
2022-09-14T23:56:21.328Z,97930.25
2022-09-14T23:58:53.050Z,97925.47
